createdAt,value
2023-05-21T00:00:22.647Z,97.56
2023-05-21T00:01:23.356Z,98.71
2023-05-21T00:02:23.933Z,99.67
2023-05-21T00:03:24.892Z,99.19
2023-05-21T00:04:24.986Z,98.71
2023-05-21T00:05:26.359Z,99.99
2023-05-21T00:06:26.744Z,99.99
2023-05-21T00:07:26.942Z,99.99
2023-05-21T00:08:26.857Z,99.99
2023-05-21T00:09:27.546Z,99.99
2023-05-21T00:10:28.459Z,99.67
2023-05-21T00:11:28.975Z,99.99
2023-05-21T00:12:29.231Z,99.99
2023-05-21T00:13:30.017Z,99.99
2023-05-21T00:14:30.502Z,99.99
2023-05-21T00:15:31.239Z,99.99
2023-05-21T00:16:31.533Z,99.99
2023-05-21T00:17:32.290Z,99.43
2023-05-21T00:18:33.407Z,99.72
2023-05-21T00:19:34.113Z,98.76
2023-05-21T00:20:34.633Z,98.86
2023-05-21T00:21:35.125Z,98.86
2023-05-21T00:22:35.952Z,99.81
2023-05-21T00:23:36.702Z,99.99
2023-05-21T00:24:37.483Z,99.99
2023-05-21T00:25:38.011Z,99.99
2023-05-21T00:26:38.687Z,99.99
2023-05-21T00:27:39.188Z,99.99
2023-05-21T00:28:39.888Z,99.99
2023-05-21T00:29:41.705Z,99.99
2023-05-21T00:30:40.848Z,99.99
2023-05-21T00:31:41.078Z,99.99
2023-05-21T00:32:41.685Z,99.99
2023-05-21T00:33:42.620Z,99.99
2023-05-21T00:34:43.313Z,99.99
2023-05-21T00:35:43.477Z,99.99
2023-05-21T00:36:44.379Z,99.99
2023-05-21T00:37:45.134Z,99.99
2023-05-21T00:38:45.301Z,99.99
2023-05-21T00:39:45.299Z,99.99
2023-05-21T00:40:46.303Z,99.99
2023-05-21T00:41:46.997Z,99.99
2023-05-21T00:42:47.994Z,99.99
2023-05-21T00:43:48.871Z,99.99
2023-05-21T00:44:49.145Z,99.99
2023-05-21T00:45:49.941Z,99.99
2023-05-21T00:46:49.947Z,99.99
2023-05-21T00:47:50.772Z,99.99
2023-05-21T00:48:51.547Z,99.99
2023-05-21T00:49:52.559Z,99.99
2023-05-21T00:50:52.640Z,99.99
2023-05-21T00:51:52.944Z,99.99
2023-05-21T00:52:53.957Z,99.99
2023-05-21T00:53:54.655Z,99.99
2023-05-21T00:54:55.308Z,99.99
2023-05-21T00:55:56.608Z,99.99
2023-05-21T00:56:57.143Z,99.99
2023-05-21T00:57:57.842Z,99.99
2023-05-21T00:58:58.767Z,99.99
2023-05-21T00:59:59.445Z,99.99
2023-05-21T01:01:00.593Z,99.99
2023-05-21T01:02:01.331Z,99.99
2023-05-21T01:03:02.192Z,99.99
2023-05-21T01:04:02.709Z,99.99
2023-05-21T01:05:03.265Z,99.99
2023-05-21T01:06:04.171Z,99.99
2023-05-21T01:07:04.892Z,99.99
2023-05-21T01:08:05.645Z,99.99
2023-05-21T01:09:07.533Z,99.99
2023-05-21T01:10:07.061Z,99.99
2023-05-21T01:11:07.543Z,99.99
2023-05-21T01:12:08.436Z,99.99
2023-05-21T01:13:08.992Z,99.99
2023-05-21T01:14:09.709Z,99.99
2023-05-21T01:15:10.406Z,99.99
2023-05-21T01:16:11.125Z,99.99
2023-05-21T01:17:11.720Z,99.99
2023-05-21T01:18:12.399Z,99.99
2023-05-21T01:19:13.062Z,99.99
2023-05-21T01:20:14.781Z,99.99
2023-05-21T01:21:14.460Z,99.99
2023-05-21T01:22:14.963Z,99.99
2023-05-21T01:23:15.665Z,99.99
2023-05-21T01:24:16.582Z,99.99
2023-05-21T01:25:17.280Z,99.99
2023-05-21T01:26:18.254Z,99.99
2023-05-21T01:27:18.719Z,99.99
2023-05-21T01:28:19.260Z,99.99
2023-05-21T01:29:20.160Z,99.99
2023-05-21T01:30:20.863Z,99.99
2023-05-21T01:31:21.024Z,99.99
2023-05-21T01:32:21.712Z,99.99
2023-05-21T01:33:22.742Z,99.99
2023-05-21T01:34:22.837Z,99.99
2023-05-21T01:35:23.495Z,99.99
2023-05-21T01:36:24.620Z,99.99
2023-05-21T01:37:25.362Z,99.99
2023-05-21T01:38:26.300Z,99.99
2023-05-21T01:39:27.015Z,99.99
2023-05-21T01:40:27.934Z,99.99
2023-05-21T01:41:28.832Z,99.99
2023-05-21T01:42:29.942Z,99.99
2023-05-21T01:43:30.228Z,99.99
2023-05-21T01:44:30.961Z,99.99
2023-05-21T01:45:30.846Z,99.99
2023-05-21T01:46:31.940Z,99.99
2023-05-21T01:47:32.797Z,99.99
2023-05-21T01:48:33.201Z,99.99
2023-05-21T01:49:33.902Z,99.99
2023-05-21T01:50:34.568Z,99.99
2023-05-21T01:51:35.245Z,99.99
2023-05-21T01:52:35.578Z,99.99
2023-05-21T01:53:36.063Z,99.99
2023-05-21T01:54:36.528Z,99.99
2023-05-21T01:55:37.235Z,99.99
2023-05-21T01:56:38.286Z,99.99
2023-05-21T01:57:38.415Z,99.99
2023-05-21T01:58:38.930Z,99.99
2023-05-21T01:59:39.403Z,99.99
2023-05-21T02:00:40.203Z,99.99
2023-05-21T02:01:40.940Z,99.99
2023-05-21T02:02:40.980Z,99.99
2023-05-21T02:03:41.991Z,99.99
2023-05-21T02:04:42.680Z,99.99
2023-05-21T02:05:43.864Z,99.99
2023-05-21T02:06:43.560Z,99.99
2023-05-21T02:07:44.479Z,99.99
2023-05-21T02:08:45.189Z,99.99
2023-05-21T02:09:45.709Z,99.99
2023-05-21T02:10:46.396Z,99.99
2023-05-21T02:11:47.121Z,99.99
2023-05-21T02:12:47.799Z,99.99
2023-05-21T02:13:48.323Z,99.99
2023-05-21T02:14:49.025Z,99.99
2023-05-21T02:15:49.559Z,99.99
2023-05-21T02:16:50.489Z,99.99
2023-05-21T02:17:50.993Z,99.99
2023-05-21T02:18:51.826Z,99.99
2023-05-21T02:19:51.938Z,99.99
2023-05-21T02:20:52.635Z,99.99
2023-05-21T02:21:53.357Z,99.99
2023-05-21T02:22:53.666Z,99.99
2023-05-21T02:23:54.494Z,99.99
2023-05-21T02:24:55.235Z,99.99
2023-05-21T02:25:55.335Z,99.99
2023-05-21T02:26:56.283Z,99.99
2023-05-21T02:27:57.186Z,99.99
2023-05-21T02:28:57.362Z,99.99
2023-05-21T02:29:58.053Z,99.99
2023-05-21T02:30:58.328Z,99.99
2023-05-21T02:31:59.436Z,99.99
2023-05-21T02:33:00.524Z,99.99
2023-05-21T02:34:01.334Z,99.99
2023-05-21T02:35:02.084Z,99.99
2023-05-21T02:36:02.642Z,99.99
2023-05-21T02:37:03.274Z,99.99
2023-05-21T02:38:03.986Z,99.99
2023-05-21T02:39:04.108Z,99.99
2023-05-21T02:40:04.838Z,99.99
2023-05-21T02:41:05.537Z,99.99
2023-05-21T02:42:06.060Z,99.99
2023-05-21T02:43:06.767Z,99.99
2023-05-21T02:44:07.828Z,99.99
2023-05-21T02:45:08.864Z,99.99
2023-05-21T02:46:09.975Z,99.99
2023-05-21T02:47:10.692Z,99.99
2023-05-21T02:48:10.939Z,99.99
2023-05-21T02:49:10.974Z,99.99
2023-05-21T02:50:11.655Z,99.99
2023-05-21T02:51:12.577Z,99.99
2023-05-21T02:52:13.481Z,99.99
2023-05-21T02:53:14.285Z,99.99
2023-05-21T02:54:14.944Z,99.99
2023-05-21T02:55:15.843Z,99.99
2023-05-21T02:56:16.872Z,99.99
2023-05-21T02:57:17.163Z,99.99
2023-05-21T02:58:18.438Z,99.99
2023-05-21T02:59:19.151Z,99.99
2023-05-21T03:00:20.094Z,99.99
2023-05-21T03:01:20.982Z,99.99
2023-05-21T03:02:21.870Z,99.99
2023-05-21T03:03:22.369Z,99.99
2023-05-21T03:04:22.811Z,99.99
2023-05-21T03:05:23.705Z,99.99
2023-05-21T03:06:24.339Z,99.99
2023-05-21T03:07:24.827Z,99.99
2023-05-21T03:08:25.538Z,99.99
2023-05-21T03:09:26.422Z,99.99
2023-05-21T03:10:27.147Z,99.99
2023-05-21T03:11:27.398Z,99.99
2023-05-21T03:12:27.861Z,99.99
2023-05-21T03:13:28.213Z,99.99
2023-05-21T03:14:29.095Z,99.99
2023-05-21T03:15:29.895Z,99.99
2023-05-21T03:16:29.990Z,99.99
2023-05-21T03:17:30.740Z,99.99
2023-05-21T03:18:31.344Z,99.99
2023-05-21T03:19:32.292Z,99.99
2023-05-21T03:20:32.641Z,99.99
2023-05-21T03:21:33.181Z,99.99
2023-05-21T03:22:33.555Z,99.99
2023-05-21T03:23:34.301Z,99.99
2023-05-21T03:24:35.339Z,99.99
2023-05-21T03:25:35.975Z,99.99
2023-05-21T03:26:37.111Z,99.99
2023-05-21T03:27:37.625Z,99.99
2023-05-21T03:28:38.097Z,99.99
2023-05-21T03:29:39.265Z,99.99
2023-05-21T03:30:39.976Z,99.99
2023-05-21T03:31:40.988Z,99.99
2023-05-21T03:32:41.627Z,99.99
2023-05-21T03:33:41.348Z,99.99
2023-05-21T03:34:41.565Z,99.99
2023-05-21T03:35:42.725Z,99.99
2023-05-21T03:36:43.212Z,99.99
2023-05-21T03:37:44.305Z,99.99
2023-05-21T03:38:44.807Z,99.99
2023-05-21T03:39:45.310Z,99.99
2023-05-21T03:40:46.680Z,99.99
2023-05-21T03:41:47.355Z,99.99
2023-05-21T03:42:47.880Z,99.99
2023-05-21T03:43:48.351Z,99.99
2023-05-21T03:44:48.799Z,99.99
2023-05-21T03:45:50.323Z,99.99
2023-05-21T03:46:50.472Z,99.99
2023-05-21T03:47:51.428Z,99.99
2023-05-21T03:48:51.350Z,99.99
2023-05-21T03:49:52.310Z,99.99
2023-05-21T03:50:53.010Z,99.99
2023-05-21T03:51:53.901Z,99.99
2023-05-21T03:52:54.858Z,99.99
2023-05-21T03:53:55.757Z,99.99
2023-05-21T03:54:56.745Z,99.99
2023-05-21T03:55:56.901Z,99.99
2023-05-21T03:56:57.411Z,99.99
2023-05-21T03:57:57.908Z,99.99
2023-05-21T03:58:58.598Z,99.99
2023-05-21T03:59:59.531Z,99.99
2023-05-21T04:01:00.537Z,99.99
2023-05-21T04:02:00.823Z,99.99
2023-05-21T04:03:01.880Z,99.99
2023-05-21T04:04:03.023Z,99.99
2023-05-21T04:05:03.012Z,99.99
2023-05-21T04:06:03.320Z,99.99
2023-05-21T04:07:04.066Z,99.99
2023-05-21T04:08:04.758Z,99.99
2023-05-21T04:09:05.145Z,99.99
2023-05-21T04:10:05.834Z,99.99
2023-05-21T04:11:06.607Z,99.99
2023-05-21T04:12:07.101Z,99.99
2023-05-21T04:13:07.833Z,99.99
2023-05-21T04:14:08.746Z,99.99
2023-05-21T04:15:09.243Z,99.99
2023-05-21T04:16:09.845Z,99.99
2023-05-21T04:17:10.800Z,99.99
2023-05-21T04:18:11.600Z,99.99
2023-05-21T04:19:12.418Z,99.99
2023-05-21T04:20:12.407Z,99.99
2023-05-21T04:21:13.097Z,99.99
2023-05-21T04:22:14.006Z,99.99
2023-05-21T04:23:14.509Z,99.99
2023-05-21T04:24:15.051Z,99.99
2023-05-21T04:25:16.050Z,99.99
2023-05-21T04:26:16.042Z,99.99
2023-05-21T04:27:16.758Z,99.99
2023-05-21T04:28:17.274Z,99.99
2023-05-21T04:29:17.552Z,99.99
2023-05-21T04:30:18.541Z,99.99
2023-05-21T04:31:19.449Z,99.99
2023-05-21T04:32:19.880Z,99.99
2023-05-21T04:33:20.638Z,99.99
2023-05-21T04:34:21.537Z,99.99
2023-05-21T04:35:21.800Z,99.99
2023-05-21T04:36:22.585Z,99.99
2023-05-21T04:37:23.293Z,99.99
2023-05-21T04:38:23.974Z,99.99
2023-05-21T04:39:25.076Z,99.99
2023-05-21T04:40:25.772Z,99.99
2023-05-21T04:41:25.748Z,99.99
2023-05-21T04:42:26.286Z,99.99
2023-05-21T04:43:26.662Z,99.99
2023-05-21T04:44:27.596Z,99.99
2023-05-21T04:45:28.470Z,99.99
2023-05-21T04:46:29.746Z,99.99
2023-05-21T04:47:29.690Z,99.99
2023-05-21T04:50:31.552Z,99.99
2023-05-21T04:51:31.675Z,99.99
2023-05-21T04:52:32.136Z,99.99
2023-05-21T04:53:32.646Z,99.99
2023-05-21T04:54:33.216Z,99.99
2023-05-21T04:55:33.820Z,99.99
2023-05-21T04:56:34.266Z,99.99
2023-05-21T04:57:34.763Z,99.99
2023-05-21T04:58:35.267Z,99.99
2023-05-21T04:59:35.996Z,99.99
2023-05-21T05:00:36.806Z,99.99
2023-05-21T05:01:37.584Z,99.99
2023-05-21T05:02:37.949Z,99.99
2023-05-21T05:03:39.254Z,99.99
2023-05-21T05:06:40.717Z,99.99
2023-05-21T05:07:41.254Z,99.99
2023-05-21T05:08:41.948Z,99.99
2023-05-21T05:09:42.655Z,99.99
2023-05-21T05:10:43.373Z,99.99
2023-05-21T05:11:44.174Z,99.99
2023-05-21T05:12:44.667Z,99.99
2023-05-21T05:13:46.628Z,99.99
2023-05-21T05:14:46.332Z,99.99
2023-05-21T05:15:48.107Z,99.99
2023-05-21T05:16:46.975Z,99.99
2023-05-21T05:17:47.762Z,99.99
2023-05-21T05:18:47.937Z,99.99
2023-05-21T05:19:48.020Z,99.99
2023-05-21T05:20:48.930Z,99.99
2023-05-21T05:21:49.068Z,99.99
2023-05-21T05:22:49.250Z,99.99
2023-05-21T05:23:49.157Z,99.99
2023-05-21T05:24:49.744Z,99.99
2023-05-21T05:25:50.764Z,99.99
2023-05-21T05:26:51.721Z,99.99
2023-05-21T05:27:52.017Z,99.99
2023-05-21T05:28:52.591Z,99.99
2023-05-21T05:29:53.079Z,99.99
2023-05-21T05:30:53.818Z,99.99
2023-05-21T05:31:53.696Z,99.99
2023-05-21T05:32:54.290Z,99.99
2023-05-21T05:33:55.360Z,99.99
2023-05-21T05:34:56.149Z,99.99
2023-05-21T05:35:56.572Z,99.99
2023-05-21T05:36:57.243Z,99.99
2023-05-21T05:37:57.539Z,99.99
2023-05-21T05:38:58.523Z,99.99
2023-05-21T05:39:58.851Z,99.99
2023-05-21T05:40:59.888Z,99.99
2023-05-21T05:42:00.618Z,99.99
2023-05-21T05:43:01.283Z,99.99
2023-05-21T05:44:01.984Z,99.99
2023-05-21T05:45:03.033Z,99.99
2023-05-21T05:46:03.755Z,99.99
2023-05-21T05:47:04.633Z,99.99
2023-05-21T05:48:05.649Z,99.99
2023-05-21T05:49:06.302Z,99.99
2023-05-21T05:50:07.020Z,99.99
2023-05-21T05:51:07.893Z,99.99
2023-05-21T05:52:08.405Z,99.99
2023-05-21T05:53:08.652Z,99.99
2023-05-21T05:54:09.342Z,99.99
2023-05-21T05:55:09.900Z,99.99
2023-05-21T05:56:10.821Z,99.99
2023-05-21T05:57:11.333Z,99.99
2023-05-21T05:58:12.042Z,99.99
2023-05-21T05:59:12.751Z,99.99
2023-05-21T06:00:13.654Z,99.99
2023-05-21T06:01:14.384Z,99.99
2023-05-21T06:02:14.791Z,99.99
2023-05-21T06:03:15.670Z,99.99
2023-05-21T06:04:16.787Z,99.99
2023-05-21T06:05:17.794Z,99.99
2023-05-21T06:06:18.168Z,99.99
2023-05-21T06:07:18.712Z,99.99
2023-05-21T06:08:19.024Z,99.99
2023-05-21T06:09:19.762Z,99.99
2023-05-21T06:10:20.505Z,99.99
2023-05-21T06:11:21.211Z,99.99
2023-05-21T06:12:21.775Z,99.99
2023-05-21T06:13:22.265Z,99.99
2023-05-21T06:14:23.183Z,99.99
2023-05-21T06:15:23.070Z,99.99
2023-05-21T06:16:23.512Z,99.99
2023-05-21T06:17:23.672Z,99.99
2023-05-21T06:18:23.983Z,99.99
2023-05-21T06:19:24.557Z,99.99
2023-05-21T06:20:25.481Z,99.99
2023-05-21T06:21:26.002Z,99.99
2023-05-21T06:22:30.223Z,99.99
2023-05-21T06:23:27.726Z,99.99
2023-05-21T06:24:28.075Z,99.99
2023-05-21T06:25:28.394Z,99.99
2023-05-21T06:26:29.550Z,99.99
2023-05-21T06:27:30.085Z,99.99
2023-05-21T06:28:30.587Z,99.99
2023-05-21T06:29:31.493Z,99.99
2023-05-21T06:30:31.420Z,99.99
2023-05-21T06:31:32.352Z,99.99
2023-05-21T06:32:33.435Z,99.99
2023-05-21T06:33:33.872Z,99.99
2023-05-21T06:34:34.315Z,99.99
2023-05-21T06:35:35.332Z,99.99
2023-05-21T06:36:35.603Z,99.99
2023-05-21T06:37:35.494Z,99.99
2023-05-21T06:38:36.172Z,99.99
2023-05-21T06:39:37.060Z,99.99
2023-05-21T06:40:37.402Z,99.99
2023-05-21T06:41:38.626Z,99.99
2023-05-21T06:42:39.156Z,99.99
2023-05-21T06:43:39.410Z,99.99
2023-05-21T06:44:39.897Z,99.99
2023-05-21T06:45:41.111Z,99.99
2023-05-21T06:46:41.493Z,99.99
2023-05-21T06:47:42.274Z,99.99
2023-05-21T06:48:42.190Z,99.99
2023-05-21T06:49:42.718Z,99.99
2023-05-21T06:50:43.043Z,99.99
2023-05-21T06:51:43.656Z,99.99
2023-05-21T06:52:43.567Z,99.99
2023-05-21T06:53:43.924Z,99.99
2023-05-21T06:54:44.227Z,99.99
2023-05-21T06:55:45.392Z,99.73
2023-05-21T06:56:45.698Z,98.48
2023-05-21T06:57:46.439Z,99.25
2023-05-21T06:58:46.933Z,99.99
2023-05-21T06:59:47.432Z,99.82
2023-05-21T07:00:48.372Z,97.96
2023-05-21T07:01:49.310Z,95.07
2023-05-21T07:02:50.284Z,94.69
2023-05-21T07:03:50.380Z,94.49
2023-05-21T07:04:51.138Z,97.24
2023-05-21T07:05:52.247Z,95.6
2023-05-21T07:06:52.740Z,92.82
2023-05-21T07:07:53.217Z,92.33
2023-05-21T07:08:53.732Z,92.43
2023-05-21T07:09:54.446Z,93.59
2023-05-21T07:10:54.983Z,93.77
2023-05-21T07:11:56.107Z,93.01
2023-05-21T07:12:56.843Z,93.68
2023-05-21T07:13:56.795Z,94.01
2023-05-21T07:14:59.320Z,93.05
2023-05-21T07:15:58.277Z,92.67
2023-05-21T07:16:58.750Z,93.63
2023-05-21T07:17:59.580Z,94.78
2023-05-21T07:19:00.475Z,93.68
2023-05-21T07:20:01.349Z,93.39
2023-05-21T07:21:01.411Z,92.76
2023-05-21T07:22:02.071Z,92.19
2023-05-21T07:23:02.952Z,89.78
2023-05-21T07:24:03.652Z,89.35
2023-05-21T07:25:04.414Z,91.13
2023-05-21T07:26:05.230Z,93.38
2023-05-21T07:27:14.486Z,93.68
2023-05-21T07:28:06.745Z,93.68
2023-05-21T07:29:07.559Z,90.93
2023-05-21T07:30:08.297Z,89.49
2023-05-21T07:31:09.261Z,84.53
2023-05-21T07:32:09.352Z,85.87
2023-05-21T07:33:10.192Z,85.39
2023-05-21T07:34:11.056Z,86.16
2023-05-21T07:35:11.569Z,85.87
2023-05-21T07:36:12.368Z,84.91
2023-05-21T07:37:13.628Z,83.61
2023-05-21T07:38:14.214Z,83.8
2023-05-21T07:39:14.493Z,82.06
2023-05-21T07:40:15.181Z,82.16
2023-05-21T07:41:17.921Z,82.45
2023-05-21T07:42:16.246Z,79.36
2023-05-21T07:43:16.931Z,78.59
2023-05-21T07:44:17.648Z,77.92
2023-05-21T07:45:18.144Z,77.73
2023-05-21T07:46:18.918Z,78.79
2023-05-21T07:47:19.952Z,79.56
2023-05-21T07:48:20.765Z,78.59
2023-05-21T07:49:21.276Z,77.63
2023-05-21T07:50:21.579Z,78.15
2023-05-21T07:51:22.509Z,77.58
2023-05-21T07:52:23.315Z,79.11
2023-05-21T07:53:23.938Z,78.54
2023-05-21T07:54:24.455Z,77.67
2023-05-21T07:55:25.495Z,77.86
2023-05-21T07:56:25.889Z,76.32
2023-05-21T07:57:26.602Z,76.71
2023-05-21T07:58:27.309Z,75.2
2023-05-21T07:59:28.238Z,75.74
2023-05-21T08:00:29.158Z,75.74
2023-05-21T08:01:29.897Z,75.16
2023-05-21T08:02:30.852Z,74.78
2023-05-21T08:03:31.456Z,74.55
2023-05-21T08:04:32.249Z,74.84
2023-05-21T08:05:32.878Z,75.23
2023-05-21T08:06:33.632Z,75.99
2023-05-21T08:07:34.586Z,75.61
2023-05-21T08:08:35.266Z,77.15
2023-05-21T08:09:35.760Z,77.15
2023-05-21T08:10:36.273Z,77.06
2023-05-21T08:11:36.996Z,77.53
2023-05-21T08:12:37.140Z,76.09
2023-05-21T08:13:37.838Z,74.36
2023-05-21T08:14:38.567Z,72.75
2023-05-21T08:15:38.773Z,71.41
2023-05-21T08:16:39.408Z,70.44
2023-05-21T08:17:40.509Z,70.89
2023-05-21T08:18:41.600Z,71.7
2023-05-21T08:19:42.097Z,73.05
2023-05-21T08:20:42.586Z,73.72
2023-05-21T08:21:43.157Z,74.3
2023-05-21T08:22:43.680Z,71.79
2023-05-21T08:23:44.391Z,70.25
2023-05-21T08:24:44.600Z,69.87
2023-05-21T08:25:45.187Z,69.87
2023-05-21T08:26:45.776Z,69.61
2023-05-21T08:27:46.189Z,72.21
2023-05-21T08:28:46.477Z,72.89
2023-05-21T08:29:47.457Z,73.95
2023-05-21T08:30:48.146Z,73.66
2023-05-21T08:31:48.959Z,73.95
2023-05-21T08:32:49.695Z,72.6
2023-05-21T08:33:50.667Z,70.19
2023-05-21T08:34:50.944Z,70.32
2023-05-21T08:35:51.845Z,69.35
2023-05-21T08:36:52.772Z,68.59
2023-05-21T08:37:53.838Z,67.71
2023-05-21T08:38:54.540Z,65.78
2023-05-21T08:39:55.472Z,64.53
2023-05-21T08:40:56.237Z,64.53
2023-05-21T08:41:56.763Z,64.72
2023-05-21T08:42:57.643Z,65.3
2023-05-21T08:44:00.301Z,66.49
2023-05-21T08:44:58.808Z,67.36
2023-05-21T08:45:59.760Z,67.75
2023-05-21T08:47:00.601Z,65.82
2023-05-21T08:48:01.553Z,64.28
2023-05-21T08:49:02.371Z,64.28
2023-05-21T08:50:02.885Z,69.04
2023-05-21T08:51:03.200Z,70.2
2023-05-21T08:52:04.281Z,70.39
2023-05-21T08:53:12.641Z,71.55
2023-05-21T08:54:05.076Z,70.39
2023-05-21T08:55:05.552Z,69.71
2023-05-21T08:56:06.271Z,69.42
2023-05-21T08:57:06.782Z,68.98
2023-05-21T08:58:06.711Z,68.55
2023-05-21T08:59:07.005Z,69.26
2023-05-21T09:00:07.947Z,70.48
2023-05-21T09:01:08.525Z,72.64
2023-05-21T09:02:10.942Z,73.22
2023-05-21T09:03:10.217Z,71.48
2023-05-21T09:04:25.821Z,71
2023-05-21T09:05:10.712Z,72
2023-05-21T09:06:10.975Z,71.42
2023-05-21T09:07:11.704Z,68.43
2023-05-21T09:08:12.744Z,67.21
2023-05-21T09:09:13.245Z,66.43
2023-05-21T09:10:13.970Z,65.95
2023-05-21T09:11:14.465Z,66.43
2023-05-21T09:12:15.158Z,65.98
2023-05-21T09:13:16.109Z,68.21
2023-05-21T09:14:16.805Z,70.43
2023-05-21T09:15:17.525Z,69.27
2023-05-21T09:16:18.110Z,68.3
2023-05-21T09:17:18.986Z,69.27
2023-05-21T09:18:19.421Z,68.73
2023-05-21T09:19:20.561Z,69.5
2023-05-21T09:20:21.229Z,68.56
2023-05-21T09:21:21.990Z,70.11
2023-05-21T09:22:22.485Z,69.82
2023-05-21T09:23:23.236Z,68.4
2023-05-21T09:24:24.027Z,67.08
2023-05-21T09:25:24.308Z,65.66
2023-05-21T09:26:25.341Z,63.04
2023-05-21T09:27:25.685Z,64.62
2023-05-21T09:28:26.589Z,61.42
2023-05-21T09:29:27.210Z,59.19
2023-05-21T09:30:34.136Z,59.19
2023-05-21T09:31:28.014Z,59.31
2023-05-21T09:32:28.846Z,62.81
2023-05-21T09:33:29.079Z,62.16
2023-05-21T09:34:29.249Z,61.97
2023-05-21T09:35:29.975Z,59.18
2023-05-21T09:36:30.220Z,60.74
2023-05-21T09:37:32.916Z,60.86
2023-05-21T09:39:32.662Z,57.62
2023-05-21T09:40:33.166Z,58.79
2023-05-21T09:41:33.726Z,57.43
2023-05-21T09:42:34.577Z,58.04
2023-05-21T09:43:35.093Z,58.82
2023-05-21T09:44:35.622Z,57.85
2023-05-21T09:45:36.923Z,57.1
2023-05-21T09:46:36.879Z,53.11
2023-05-21T09:47:38.101Z,52.59
2023-05-21T09:48:38.724Z,53.57
2023-05-21T09:49:39.470Z,55.32
2023-05-21T09:50:40.745Z,53.93
2023-05-21T09:51:40.849Z,52.47
2023-05-21T09:52:42.189Z,51.5
2023-05-21T09:53:42.454Z,52.19
2023-05-21T09:54:42.357Z,53.81
2023-05-21T09:55:43.061Z,53.61
2023-05-21T09:56:43.549Z,52.84
2023-05-21T09:57:44.282Z,51.93
2023-05-21T09:58:44.765Z,51.55
2023-05-21T09:59:45.827Z,51.35
2023-05-21T10:00:46.573Z,50.56
2023-05-21T10:01:47.373Z,51.72
2023-05-21T10:02:48.174Z,52.78
2023-05-21T10:03:50.638Z,53.24
2023-05-21T10:04:49.889Z,54.19
2023-05-21T10:05:49.879Z,55.35
2023-05-21T10:06:49.845Z,55.83
2023-05-21T10:07:50.787Z,54.94
2023-05-21T10:08:51.687Z,55.52
2023-05-21T10:09:52.552Z,55.42
2023-05-21T10:10:53.551Z,56.39
2023-05-21T10:11:54.304Z,56.75
2023-05-21T10:12:55.055Z,56.26
2023-05-21T10:13:55.997Z,54.52
2023-05-21T10:14:56.320Z,55.1
2023-05-21T10:15:56.720Z,56.46
2023-05-21T10:16:57.337Z,56.36
2023-05-21T10:17:57.757Z,57.43
2023-05-21T10:18:58.572Z,56.34
2023-05-21T10:19:59.039Z,54.88
2023-05-21T10:20:59.789Z,55.36
2023-05-21T10:22:00.497Z,54.98
2023-05-21T10:23:00.899Z,56.3
2023-05-21T10:24:01.866Z,55.92
2023-05-21T10:25:02.575Z,55.82
2023-05-21T10:26:03.049Z,56.3
2023-05-21T10:27:03.942Z,56.5
2023-05-21T10:28:04.476Z,57.46
2023-05-21T10:29:05.153Z,57.95
2023-05-21T10:30:05.820Z,57.18
2023-05-21T10:31:06.600Z,56.6
2023-05-21T10:32:07.846Z,57.18
2023-05-21T10:33:08.469Z,56.28
2023-05-21T10:34:08.200Z,56.67
2023-05-21T10:35:08.877Z,56.28
2023-05-21T10:36:09.223Z,57.34
2023-05-21T10:37:09.860Z,57.92
2023-05-21T10:38:10.563Z,57.05
2023-05-21T10:39:11.601Z,57.54
2023-05-21T10:40:12.324Z,58.76
2023-05-21T10:41:13.022Z,60.6
2023-05-21T10:42:13.778Z,60.72
2023-05-21T10:43:14.720Z,61.79
2023-05-21T10:44:15.678Z,61.79
2023-05-21T10:45:16.583Z,61.5
2023-05-21T10:46:17.577Z,61.79
2023-05-21T10:47:18.383Z,62.37
2023-05-21T10:48:18.594Z,62.95
2023-05-21T10:49:19.407Z,62.95
2023-05-21T10:50:19.718Z,62.95
2023-05-21T10:51:20.101Z,62.95
2023-05-21T10:52:20.916Z,63.43
2023-05-21T10:53:21.618Z,62.85
2023-05-21T10:54:22.603Z,65.75
2023-05-21T10:55:23.006Z,63.76
2023-05-21T10:56:23.928Z,62.21
2023-05-21T10:57:24.664Z,62.98
2023-05-21T10:58:25.155Z,62.01
2023-05-21T10:59:26.144Z,62.11
2023-05-21T11:00:26.891Z,63.66
2023-05-21T11:01:27.579Z,60.57
2023-05-21T11:02:28.214Z,60.47
2023-05-21T11:03:28.822Z,61.24
2023-05-21T11:04:28.901Z,59.05
2023-05-21T11:05:29.396Z,59.63
2023-05-21T11:06:30.317Z,59.91
2023-05-21T11:07:31.222Z,57.69
2023-05-21T11:08:31.722Z,55.76
2023-05-21T11:09:32.408Z,56.24
2023-05-21T11:10:33.347Z,57.43
2023-05-21T11:11:33.550Z,57.79
2023-05-21T11:12:34.250Z,57.88
2023-05-21T11:13:35.153Z,58.11
2023-05-21T11:14:36.224Z,59.82
2023-05-21T11:15:36.102Z,59.72
2023-05-21T11:16:37.106Z,58.47
2023-05-21T11:17:37.807Z,57.88
2023-05-21T11:18:38.621Z,58.47
2023-05-21T11:19:39.817Z,61.69
2023-05-21T11:20:39.716Z,63.14
2023-05-21T11:21:40.240Z,60.72
2023-05-21T11:22:40.799Z,59.07
2023-05-21T11:23:41.313Z,60.75
2023-05-21T11:24:42.155Z,60.07
2023-05-21T11:25:42.967Z,62.4
2023-05-21T11:26:43.503Z,58.23
2023-05-21T11:27:44.259Z,57.58
2023-05-21T11:28:44.785Z,62.72
2023-05-21T11:29:45.460Z,62.52
2023-05-21T11:30:46.888Z,58.84
2023-05-21T11:31:46.841Z,58.74
2023-05-21T11:32:47.617Z,58.87
2023-05-21T11:33:48.728Z,58.19
2023-05-21T11:34:49.198Z,56.35
2023-05-21T11:35:49.881Z,56.83
2023-05-21T11:36:50.630Z,57.8
2023-05-21T11:37:51.324Z,58.29
2023-05-21T11:38:52.002Z,55.08
2023-05-21T11:39:53.313Z,54.31
2023-05-21T11:40:53.830Z,55.28
2023-05-21T11:41:54.938Z,55.26
2023-05-21T11:42:55.959Z,55.26
2023-05-21T11:43:56.730Z,57
2023-05-21T11:44:57.477Z,55.83
2023-05-21T11:45:57.953Z,55.47
2023-05-21T11:46:59.236Z,56.05
2023-05-21T11:47:59.791Z,54.5
2023-05-21T11:49:00.483Z,54.6
2023-05-21T11:50:01.103Z,54.5
2023-05-21T11:51:02.116Z,55.28
2023-05-21T11:52:02.886Z,55.57
2023-05-21T11:53:03.561Z,55.67
2023-05-21T11:54:04.050Z,54.63
2023-05-21T11:55:04.613Z,55.69
2023-05-21T11:56:04.442Z,54.34
2023-05-21T11:57:04.981Z,53.37
2023-05-21T11:58:05.536Z,53.44
2023-05-21T11:59:07.025Z,53.44
2023-05-21T12:00:07.490Z,54.99
2023-05-21T12:01:07.845Z,57.93
2023-05-21T12:02:08.541Z,55.6
2023-05-21T12:03:09.333Z,55.31
2023-05-21T12:04:09.670Z,58.12
2023-05-21T12:05:10.236Z,59.38
2023-05-21T12:06:10.340Z,58.12
2023-05-21T12:07:11.425Z,54.72
2023-05-21T12:08:11.957Z,55.04
2023-05-21T12:09:12.250Z,55.04
2023-05-21T12:10:13.250Z,54.34
2023-05-21T12:11:13.353Z,55.14
2023-05-21T12:12:13.452Z,53.2
2023-05-21T12:13:13.965Z,52.62
2023-05-21T12:14:14.788Z,54.34
2023-05-21T12:15:15.181Z,56.6
2023-05-21T12:16:15.483Z,55.04
2023-05-21T12:17:16.090Z,54.56
2023-05-21T12:18:17.273Z,53.59
2023-05-21T12:19:18.001Z,55.27
2023-05-21T12:20:18.887Z,54.39
2023-05-21T12:21:19.611Z,56.43
2023-05-21T12:22:20.302Z,55.98
2023-05-21T12:23:21.215Z,54.71
2023-05-21T12:24:21.723Z,54.52
2023-05-21T12:25:22.346Z,53.45
2023-05-21T12:26:23.301Z,53.67
2023-05-21T12:27:23.995Z,51.92
2023-05-21T12:28:25.002Z,52.57
2023-05-21T12:29:25.743Z,55.29
2023-05-21T12:30:26.606Z,54.42
2023-05-21T12:31:26.763Z,52.96
2023-05-21T12:32:27.765Z,55.78
2023-05-21T12:33:30.616Z,52.59
2023-05-21T12:34:29.716Z,52.4
2023-05-21T12:35:30.860Z,53.67
2023-05-21T12:36:31.483Z,52.5
2023-05-21T12:37:31.882Z,52.31
2023-05-21T12:38:32.581Z,51.82
2023-05-21T12:39:33.323Z,55.61
2023-05-21T12:40:33.757Z,55.03
2023-05-21T12:41:33.965Z,56.97
2023-05-21T12:42:34.481Z,54.15
2023-05-21T12:43:35.128Z,52.96
2023-05-21T12:44:36.888Z,51.01
2023-05-21T12:45:35.886Z,50.82
2023-05-21T12:46:36.952Z,51.21
2023-05-21T12:47:37.048Z,53.64
2023-05-21T12:48:37.917Z,52.37
2023-05-21T12:49:38.199Z,55.58
2023-05-21T12:50:39.216Z,54.61
2023-05-21T12:51:39.499Z,53.16
2023-05-21T12:52:39.773Z,57.56
2023-05-21T12:53:40.255Z,59.53
2023-05-21T12:54:40.581Z,56.22
2023-05-21T12:55:41.712Z,57
2023-05-21T12:56:42.614Z,55.18
2023-05-21T12:57:43.340Z,53.04
2023-05-21T12:58:44.057Z,54.11
2023-05-21T12:59:44.587Z,51.8
2023-05-21T13:00:45.391Z,52.38
2023-05-21T13:01:46.156Z,53.55
2023-05-21T13:02:46.928Z,52.87
2023-05-21T13:03:46.702Z,51.7
2023-05-21T13:04:47.187Z,52.5
2023-05-21T13:05:47.922Z,51.53
2023-05-21T13:06:48.250Z,51.65
2023-05-21T13:07:48.743Z,51.17